createdAt,value
2023-01-06T00:01:36.084Z,3.30
2023-01-06T00:04:05.876Z,3.30
2023-01-06T00:06:35.113Z,4.00
2023-01-06T00:09:05.550Z,3.80
2023-01-06T00:11:35.137Z,4.10
2023-01-06T00:14:06.179Z,3.30
2023-01-06T00:16:37.176Z,3.40
2023-01-06T00:19:06.902Z,3.40
2023-01-06T00:21:36.115Z,3.20
2023-01-06T00:24:06.054Z,3.10
2023-01-06T00:26:35.395Z,3.20
2023-01-06T00:29:05.138Z,3.20
2023-01-06T00:31:34.612Z,3.70
2023-01-06T00:34:04.473Z,4.20
2023-01-06T00:36:34.195Z,3.90
2023-01-06T00:39:04.953Z,4.50
2023-01-06T00:41:52.344Z,4.90
2023-01-06T00:44:22.010Z,4.40
2023-01-06T00:46:51.422Z,4.00
2023-01-06T00:49:20.757Z,4.30
2023-01-06T00:51:50.973Z,4.10
2023-01-06T00:54:20.918Z,4.30
2023-01-06T00:56:53.107Z,4.40
2023-01-06T00:59:23.937Z,4.90
2023-01-06T01:01:55.508Z,4.50
2023-01-06T01:04:26.202Z,4.10
2023-01-06T01:06:56.953Z,4.00
2023-01-06T01:09:28.536Z,3.70
2023-01-06T01:12:10.331Z,4.50
2023-01-06T01:14:42.297Z,4.40
2023-01-06T01:17:13.615Z,4.20
2023-01-06T01:19:43.055Z,3.90
2023-01-06T01:22:13.298Z,4.60
2023-01-06T01:24:42.743Z,5.20
2023-01-06T01:27:13.720Z,4.50
2023-01-06T01:29:43.180Z,3.90
2023-01-06T01:32:12.738Z,4.00
2023-01-06T01:34:42.143Z,3.90
2023-01-06T01:37:11.833Z,4.60
2023-01-06T01:39:41.445Z,4.90
2023-01-06T01:42:17.755Z,5.20
2023-01-06T01:45:03.739Z,3.90
2023-01-06T01:47:41.857Z,5.00
2023-01-06T01:50:23.862Z,4.60
2023-01-06T01:52:56.632Z,2.80
2023-01-06T01:55:27.984Z,4.70
2023-01-06T01:58:01.096Z,4.20
2023-01-06T02:00:31.089Z,4.70
2023-01-06T02:03:01.030Z,5.00
2023-01-06T02:05:32.953Z,5.20
2023-01-06T02:08:07.784Z,4.70
2023-01-06T02:10:37.655Z,5.40
2023-01-06T02:13:07.613Z,5.10
2023-01-06T02:15:37.437Z,4.90
2023-01-06T02:18:24.334Z,4.70
2023-01-06T02:21:36.355Z,5.20
2023-01-06T02:24:37.282Z,5.20
2023-01-06T02:27:40.973Z,5.30
2023-01-06T02:30:34.096Z,5.20
2023-01-06T02:33:14.005Z,5.80
2023-01-06T02:35:57.984Z,4.60
2023-01-06T02:38:42.933Z,4.90
2023-01-06T02:41:28.353Z,6.10
2023-01-06T02:44:04.674Z,5.60
2023-01-06T02:46:55.405Z,5.80
2023-01-06T02:49:31.614Z,5.40
2023-01-06T02:52:06.915Z,6.10
2023-01-06T02:54:50.110Z,5.70
2023-01-06T02:57:29.272Z,4.80
2023-01-06T03:00:08.976Z,6.60
2023-01-06T03:02:41.143Z,6.20
2023-01-06T03:05:15.842Z,6.50
2023-01-06T03:07:47.513Z,6.60
2023-01-06T03:10:20.016Z,5.80
2023-01-06T03:12:55.792Z,5.90
2023-01-06T03:15:26.405Z,6.10
2023-01-06T03:17:56.485Z,5.50
2023-01-06T03:20:25.948Z,5.10
2023-01-06T03:22:55.513Z,6.00
2023-01-06T03:25:25.624Z,6.00
2023-01-06T03:27:55.239Z,5.60
2023-01-06T03:30:28.719Z,5.20
2023-01-06T03:33:07.510Z,5.40
2023-01-06T03:35:56.422Z,5.40
2023-01-06T03:38:39.888Z,5.70
2023-01-06T03:41:19.380Z,6.00
2023-01-06T03:43:59.147Z,6.00
2023-01-06T03:46:36.523Z,5.40
2023-01-06T03:49:09.720Z,5.70
2023-01-06T03:51:48.355Z,6.10
2023-01-06T03:54:31.803Z,6.10
2023-01-06T03:57:06.755Z,4.80
2023-01-06T03:59:41.842Z,5.10
2023-01-06T04:02:11.733Z,3.40
2023-01-06T04:04:41.399Z,3.30
2023-01-06T04:07:11.234Z,2.60
2023-01-06T04:09:42.386Z,2.40
2023-01-06T04:12:29.882Z,2.30
2023-01-06T04:14:59.465Z,2.30
2023-01-06T04:17:28.850Z,2.60
2023-01-06T04:19:58.423Z,2.40
2023-01-06T04:22:28.195Z,2.20
2023-01-06T04:24:57.875Z,2.50
2023-01-06T04:27:27.246Z,2.50
2023-01-06T04:29:56.795Z,2.40
2023-01-06T04:32:26.883Z,2.60
2023-01-06T04:34:56.358Z,2.80
2023-01-06T04:37:25.742Z,1.90
2023-01-06T04:39:55.037Z,2.30
2023-01-06T04:42:24.502Z,2.70
2023-01-06T04:44:53.793Z,2.40
2023-01-06T04:47:23.364Z,2.70
2023-01-06T04:49:52.743Z,3.00
2023-01-06T04:52:22.029Z,2.80
2023-01-06T04:54:51.485Z,2.90
2023-01-06T04:57:20.841Z,2.80
2023-01-06T04:59:50.086Z,2.50
2023-01-06T05:02:19.544Z,2.10
2023-01-06T05:04:48.876Z,2.90
2023-01-06T05:07:18.347Z,2.90
2023-01-06T05:09:47.807Z,2.50
2023-01-06T05:12:17.282Z,2.70
2023-01-06T05:14:46.658Z,3.10
2023-01-06T05:17:16.045Z,3.40
2023-01-06T05:19:45.674Z,2.50
2023-01-06T05:22:15.198Z,2.70
2023-01-06T05:24:44.514Z,2.80
2023-01-06T05:27:13.870Z,2.70
2023-01-06T05:29:43.563Z,3.40
2023-01-06T05:32:13.115Z,2.80
2023-01-06T05:34:42.455Z,3.20
2023-01-06T05:37:11.857Z,3.00
2023-01-06T05:39:41.337Z,2.90
2023-01-06T05:42:10.855Z,3.00
2023-01-06T05:44:40.244Z,3.00
2023-01-06T05:47:09.664Z,3.80
2023-01-06T05:49:39.209Z,3.90
2023-01-06T05:52:08.699Z,4.30
2023-01-06T05:54:38.886Z,4.10
2023-01-06T05:57:09.510Z,4.20
2023-01-06T05:59:39.096Z,4.20
2023-01-06T06:02:09.209Z,4.70
2023-01-06T06:04:40.799Z,4.90
2023-01-06T06:07:10.326Z,4.60
2023-01-06T06:09:40.176Z,4.70
2023-01-06T06:12:09.704Z,4.80
2023-01-06T06:14:39.985Z,3.40
2023-01-06T06:17:09.403Z,5.90
2023-01-06T06:19:39.193Z,3.80
2023-01-06T06:22:10.662Z,6.10
2023-01-06T06:24:40.317Z,5.50
2023-01-06T06:27:09.597Z,5.30
2023-01-06T06:29:39.075Z,5.70
2023-01-06T06:32:08.595Z,5.50
2023-01-06T06:34:38.043Z,5.40
2023-01-06T06:37:07.614Z,2.40
2023-01-06T06:39:36.927Z,4.80
2023-01-06T06:42:07.065Z,4.80
2023-01-06T06:44:36.482Z,4.50
2023-01-06T06:47:06.589Z,4.00
2023-01-06T06:49:36.045Z,4.20
2023-01-06T06:52:05.726Z,4.40
2023-01-06T06:54:35.333Z,4.90
2023-01-06T06:57:05.076Z,4.80
2023-01-06T06:59:36.189Z,4.30
2023-01-06T07:02:05.733Z,4.60
2023-01-06T07:04:40.434Z,4.30
2023-01-06T07:07:10.173Z,5.40
2023-01-06T07:09:39.765Z,4.50
2023-01-06T07:12:10.145Z,4.60
2023-01-06T07:14:39.807Z,4.40
2023-01-06T07:17:09.394Z,4.60
2023-01-06T07:19:39.079Z,4.80
2023-01-06T07:22:09.359Z,4.50
2023-01-06T07:24:39.155Z,4.60
2023-01-06T07:27:08.482Z,4.80
2023-01-06T07:29:37.885Z,4.40
2023-01-06T07:32:10.075Z,5.30
2023-01-06T07:34:40.194Z,4.20
2023-01-06T07:37:09.751Z,4.50
2023-01-06T07:39:39.257Z,4.60
2023-01-06T07:42:10.294Z,4.40
2023-01-06T07:44:40.065Z,5.10
2023-01-06T07:47:11.314Z,5.10
2023-01-06T07:49:45.484Z,4.80
2023-01-06T07:52:14.817Z,5.60
2023-01-06T07:54:44.555Z,4.50
2023-01-06T07:57:13.932Z,4.70
2023-01-06T07:59:43.275Z,5.80
2023-01-06T08:02:12.963Z,5.20
2023-01-06T08:04:42.707Z,7.00
2023-01-06T08:07:14.132Z,7.20
2023-01-06T08:09:43.460Z,7.90
2023-01-06T08:12:12.987Z,6.30
2023-01-06T08:14:42.535Z,7.10
2023-01-06T08:17:12.517Z,7.70
2023-01-06T08:19:44.265Z,6.10
2023-01-06T08:22:13.667Z,6.80
2023-01-06T08:24:43.137Z,7.70
2023-01-06T08:27:12.603Z,7.60
2023-01-06T08:29:42.097Z,7.40
2023-01-06T08:32:11.674Z,6.90
2023-01-06T08:34:41.674Z,6.90
2023-01-06T08:37:12.439Z,5.70
2023-01-06T08:39:42.214Z,4.80
2023-01-06T08:42:12.464Z,4.80
2023-01-06T08:44:45.424Z,4.90
2023-01-06T08:47:15.722Z,4.80
2023-01-06T08:49:47.819Z,5.00
2023-01-06T08:52:17.543Z,5.00
2023-01-06T08:54:47.076Z,4.90
2023-01-06T08:57:16.526Z,4.50
2023-01-06T08:59:46.317Z,4.40
2023-01-06T09:02:15.811Z,4.60
2023-01-06T09:04:45.411Z,4.70
2023-01-06T09:07:15.059Z,5.00
2023-01-06T09:09:44.573Z,5.10
2023-01-06T09:12:14.054Z,4.30
2023-01-06T09:14:43.838Z,4.40
2023-01-06T09:17:13.264Z,4.50
2023-01-06T09:19:43.013Z,4.80
2023-01-06T09:22:12.741Z,6.20
2023-01-06T09:24:42.402Z,8.60
2023-01-06T09:27:11.804Z,6.00
2023-01-06T09:29:43.263Z,5.90
2023-01-06T09:32:12.672Z,6.90
2023-01-06T09:34:42.198Z,7.00
2023-01-06T09:37:15.137Z,6.10
2023-01-06T09:39:44.619Z,7.30
2023-01-06T09:42:37.352Z,8.70
2023-01-06T09:45:12.021Z,7.30
2023-01-06T09:47:48.514Z,6.10
2023-01-06T09:50:30.585Z,4.70
2023-01-06T09:53:05.903Z,6.50
2023-01-06T09:55:40.877Z,6.40
2023-01-06T09:58:15.161Z,5.20
2023-01-06T10:00:46.376Z,5.70
2023-01-06T10:03:18.513Z,5.50
2023-01-06T10:06:00.025Z,8.30
2023-01-06T10:08:42.068Z,6.30
2023-01-06T10:11:15.337Z,6.30
2023-01-06T10:13:56.504Z,6.00
2023-01-06T10:16:40.072Z,7.40
2023-01-06T10:19:27.790Z,6.70
2023-01-06T10:22:08.298Z,5.80
2023-01-06T10:24:50.693Z,5.40
2023-01-06T10:27:28.651Z,5.30
2023-01-06T10:30:02.957Z,5.30
2023-01-06T10:32:36.843Z,5.60
2023-01-06T10:35:14.120Z,5.80
2023-01-06T10:37:46.484Z,5.40
2023-01-06T10:40:21.542Z,5.70
2023-01-06T10:42:58.493Z,6.20
2023-01-06T10:45:32.714Z,6.70
2023-01-06T10:48:04.048Z,5.80
2023-01-06T10:50:35.417Z,6.70
2023-01-06T10:53:05.493Z,6.20
2023-01-06T10:55:41.109Z,6.10
2023-01-06T10:58:20.013Z,6.10
2023-01-06T11:01:01.402Z,6.70
2023-01-06T11:03:33.685Z,6.50
2023-01-06T11:06:15.625Z,8.10
2023-01-06T11:08:46.073Z,8.00
2023-01-06T11:11:27.859Z,9.30
2023-01-06T11:14:00.388Z,7.20
2023-01-06T11:16:32.531Z,6.90
2023-01-06T11:19:05.510Z,6.70
2023-01-06T11:21:44.432Z,6.10
2023-01-06T11:24:19.651Z,7.50
2023-01-06T11:26:53.901Z,6.90
2023-01-06T11:29:31.343Z,7.20
2023-01-06T11:32:06.428Z,8.10
2023-01-06T11:34:36.195Z,7.50
2023-01-06T11:37:06.100Z,10.40
2023-01-06T11:39:37.557Z,16.10
2023-01-06T11:42:13.820Z,10.60
2023-01-06T11:44:43.756Z,9.70
2023-01-06T11:47:17.435Z,9.80
2023-01-06T11:49:50.758Z,8.80
2023-01-06T11:52:24.969Z,8.90
2023-01-06T11:55:21.542Z,7.90
2023-01-06T11:57:59.956Z,7.50
2023-01-06T12:00:39.148Z,7.60
2023-01-06T12:03:19.004Z,8.90
2023-01-06T12:05:56.893Z,6.20
2023-01-06T12:08:32.003Z,8.00
2023-01-06T12:11:07.194Z,7.30
2023-01-06T12:13:44.188Z,7.40
2023-01-06T12:16:25.165Z,7.40
2023-01-06T12:18:55.832Z,7.60
2023-01-06T12:21:31.202Z,7.80
2023-01-06T12:24:05.351Z,7.80
2023-01-06T12:26:35.655Z,7.40
2023-01-06T12:29:06.787Z,5.80
2023-01-06T12:31:48.296Z,5.60
2023-01-06T12:34:22.761Z,5.80
2023-01-06T12:36:59.035Z,5.00
2023-01-06T12:39:36.253Z,5.90
2023-01-06T12:42:16.380Z,5.40
2023-01-06T12:44:51.442Z,5.40
2023-01-06T12:47:28.595Z,5.80
2023-01-06T12:50:02.326Z,5.80
2023-01-06T12:55:04.351Z,5.00
2023-01-06T12:57:47.118Z,4.60
2023-01-06T13:00:37.427Z,5.00
2023-01-06T13:03:55.872Z,5.90
2023-01-06T13:06:43.601Z,4.60
2023-01-06T13:09:25.462Z,4.70
2023-01-06T13:12:13.365Z,4.10
2023-01-06T13:14:49.351Z,4.70
2023-01-06T13:17:24.433Z,4.70
2023-01-06T13:19:56.199Z,4.10
2023-01-06T13:22:39.367Z,4.70
2023-01-06T13:25:28.931Z,3.90
2023-01-06T13:28:08.903Z,5.90
2023-01-06T13:30:58.504Z,4.50
2023-01-06T13:33:48.475Z,2.90
2023-01-06T13:36:41.831Z,4.20
2023-01-06T13:39:16.373Z,4.30
2023-01-06T13:41:49.621Z,4.90
2023-01-06T13:44:23.722Z,4.60
2023-01-06T13:47:03.461Z,5.10
2023-01-06T13:49:37.932Z,4.40
2023-01-06T13:52:15.161Z,4.80
2023-01-06T13:55:22.613Z,4.70
2023-01-06T13:57:52.456Z,5.10
2023-01-06T14:00:25.336Z,4.50
2023-01-06T14:03:25.378Z,4.40
2023-01-06T14:05:59.242Z,5.60
2023-01-06T14:08:37.949Z,5.20
2023-01-06T14:11:25.351Z,4.90
2023-01-06T14:13:57.420Z,4.40
2023-01-06T14:16:43.031Z,4.60
2023-01-06T14:19:17.766Z,3.40
2023-01-06T14:21:48.943Z,4.40
2023-01-06T14:24:27.904Z,5.30
2023-01-06T14:27:00.752Z,5.10
2023-01-06T14:30:03.978Z,4.60
2023-01-06T14:33:08.365Z,4.60
2023-01-06T14:35:43.455Z,4.50
2023-01-06T14:38:24.240Z,5.00
2023-01-06T14:40:58.038Z,5.20
2023-01-06T14:43:38.723Z,5.30
2023-01-06T14:46:19.225Z,5.80
2023-01-06T14:48:54.151Z,6.10
2023-01-06T14:51:24.397Z,5.40
2023-01-06T14:54:00.362Z,5.40
2023-01-06T14:56:31.180Z,5.50
2023-01-06T14:59:16.138Z,5.30
2023-01-06T15:02:00.499Z,5.60
2023-01-06T15:04:38.923Z,6.50
2023-01-06T15:07:24.033Z,6.20
2023-01-06T15:10:15.147Z,5.70
2023-01-06T15:12:56.849Z,5.90
2023-01-06T15:15:34.290Z,5.60
2023-01-06T15:18:14.507Z,5.10
2023-01-06T15:20:49.848Z,4.00
2023-01-06T15:23:21.793Z,5.70
2023-01-06T15:25:53.261Z,5.40
2023-01-06T15:28:26.932Z,5.70
2023-01-06T15:30:57.569Z,5.60
2023-01-06T15:33:33.312Z,6.30
2023-01-06T15:36:03.629Z,6.20
2023-01-06T15:38:36.692Z,6.70
2023-01-06T15:41:27.472Z,6.60
2023-01-06T15:43:57.672Z,8.90
2023-01-06T15:46:36.256Z,6.60
2023-01-06T15:49:06.815Z,7.00
2023-01-06T15:51:36.340Z,8.50
2023-01-06T15:54:06.361Z,8.30
2023-01-06T15:56:36.401Z,8.50
2023-01-06T15:59:13.914Z,11.90
2023-01-06T16:01:50.615Z,12.80
2023-01-06T16:04:21.782Z,13.40
2023-01-06T16:06:52.022Z,12.90
2023-01-06T16:09:35.603Z,16.10
2023-01-06T16:12:22.409Z,19.10
2023-01-06T16:14:52.046Z,15.80
2023-01-06T16:17:29.437Z,16.00
2023-01-06T16:20:01.127Z,18.70
2023-01-06T16:22:38.059Z,19.20
2023-01-06T16:25:23.814Z,17.10
2023-01-06T16:27:56.573Z,16.30
2023-01-06T16:30:28.247Z,16.40
2023-01-06T16:33:00.242Z,14.70
2023-01-06T16:35:31.773Z,15.00
2023-01-06T16:38:03.794Z,16.10
2023-01-06T16:40:33.324Z,17.90
2023-01-06T16:43:03.610Z,17.80
2023-01-06T16:45:38.272Z,17.90
2023-01-06T16:48:09.255Z,15.10
2023-01-06T16:50:42.056Z,15.70
2023-01-06T16:53:15.895Z,10.10
2023-01-06T16:55:46.037Z,18.10
2023-01-06T16:58:17.848Z,18.50
2023-01-06T17:00:51.647Z,18.20
2023-01-06T17:03:23.474Z,18.70
2023-01-06T17:05:53.748Z,11.50
2023-01-06T17:08:27.894Z,16.80
2023-01-06T17:11:00.011Z,15.40
2023-01-06T17:13:38.669Z,15.60
2023-01-06T17:16:17.282Z,19.20
2023-01-06T17:18:55.229Z,19.70
2023-01-06T17:21:28.436Z,17.70
2023-01-06T17:24:02.705Z,19.90
2023-01-06T17:26:32.599Z,17.10
2023-01-06T17:29:03.220Z,15.70
2023-01-06T17:31:35.666Z,16.90
2023-01-06T17:34:14.842Z,13.60
2023-01-06T17:36:49.364Z,13.40
2023-01-06T17:39:22.862Z,15.20
2023-01-06T17:41:58.339Z,13.00
2023-01-06T17:44:34.776Z,13.80
2023-01-06T17:47:12.374Z,13.40
2023-01-06T17:49:44.267Z,13.90
2023-01-06T17:52:19.769Z,15.30
2023-01-06T17:55:15.538Z,14.00
2023-01-06T17:57:47.299Z,9.70
2023-01-06T18:00:27.840Z,11.80
2023-01-06T18:03:03.838Z,16.10
2023-01-06T18:06:08.600Z,14.90
2023-01-06T18:08:40.893Z,15.00
2023-01-06T18:11:30.205Z,15.40
2023-01-06T18:14:15.719Z,14.90
2023-01-06T18:16:48.217Z,15.40
2023-01-06T18:19:35.614Z,14.30
2023-01-06T18:22:14.524Z,15.60
2023-01-06T18:24:46.585Z,17.30
2023-01-06T18:27:23.423Z,17.30
2023-01-06T18:29:56.135Z,17.70
2023-01-06T18:32:31.622Z,9.50
2023-01-06T18:35:02.604Z,17.70
2023-01-06T18:37:33.574Z,17.00
2023-01-06T18:40:04.973Z,15.40
2023-01-06T18:42:37.103Z,16.10
2023-01-06T18:45:25.703Z,17.30
2023-01-06T18:47:59.390Z,16.30
2023-01-06T18:52:59.888Z,13.00
2023-01-06T18:55:37.316Z,13.60
2023-01-06T18:58:20.940Z,14.30
2023-01-06T19:00:55.092Z,14.30
2023-01-06T19:03:40.867Z,15.20
2023-01-06T19:06:47.811Z,15.40
2023-01-06T19:09:33.639Z,15.10
2023-01-06T19:12:27.270Z,14.90
2023-01-06T19:15:18.620Z,16.20
2023-01-06T19:17:58.830Z,18.00
2023-01-06T19:20:37.225Z,18.70
2023-01-06T19:23:21.304Z,18.30
2023-01-06T19:26:02.826Z,17.00
2023-01-06T19:28:40.596Z,19.50
2023-01-06T19:31:20.249Z,20.80
2023-01-06T19:33:58.477Z,17.90
2023-01-06T19:36:47.373Z,21.20
2023-01-06T19:39:35.207Z,20.40
2023-01-06T19:42:29.742Z,20.50
2023-01-06T19:45:04.093Z,22.20
2023-01-06T19:47:43.018Z,21.50
2023-01-06T19:50:20.946Z,20.10
2023-01-06T19:53:01.093Z,25.00
2023-01-06T19:55:35.874Z,23.40
2023-01-06T19:58:17.544Z,25.00
2023-01-06T20:00:50.922Z,24.70
2023-01-06T20:03:34.638Z,23.60
2023-01-06T20:06:08.133Z,22.60
2023-01-06T20:08:47.355Z,22.70
2023-01-06T20:11:20.075Z,20.80
2023-01-06T20:13:52.405Z,20.10
2023-01-06T20:16:27.802Z,19.50
2023-01-06T20:19:02.010Z,14.70
2023-01-06T20:21:34.496Z,18.20
2023-01-06T20:24:11.304Z,18.40
2023-01-06T20:26:44.149Z,18.80
2023-01-06T20:29:18.070Z,16.90
2023-01-06T20:31:52.364Z,17.00
2023-01-06T20:34:23.722Z,16.40
2023-01-06T20:36:54.123Z,15.50
2023-01-06T20:39:26.571Z,15.70
2023-01-06T20:42:00.359Z,16.10
2023-01-06T20:44:30.213Z,16.90
2023-01-06T20:46:59.874Z,17.30
2023-01-06T20:49:29.144Z,17.50
2023-01-06T20:51:58.648Z,18.70
2023-01-06T20:54:28.613Z,22.30
2023-01-06T20:56:58.166Z,20.20
2023-01-06T20:59:27.712Z,21.10
2023-01-06T21:01:57.370Z,20.80
2023-01-06T21:04:35.066Z,21.40
2023-01-06T21:07:06.489Z,20.80
2023-01-06T21:09:36.141Z,19.50
2023-01-06T21:12:09.893Z,20.50
2023-01-06T21:17:07.483Z,23.00
2023-01-06T21:19:36.936Z,21.70
2023-01-06T21:22:06.396Z,23.10
2023-01-06T21:24:35.816Z,19.30
2023-01-06T21:27:10.156Z,23.70
2023-01-06T21:29:40.004Z,22.70
2023-01-06T21:32:10.033Z,24.80
2023-01-06T21:34:39.338Z,22.50
2023-01-06T21:37:09.140Z,25.40
2023-01-06T21:39:39.435Z,23.60
2023-01-06T21:42:28.944Z,22.40
2023-01-06T21:45:09.664Z,17.10
2023-01-06T21:47:44.157Z,23.10
2023-01-06T21:50:13.615Z,22.70
2023-01-06T21:52:46.564Z,22.50
2023-01-06T21:55:17.318Z,23.30
2023-01-06T21:57:47.573Z,23.30
2023-01-06T22:00:17.865Z,21.60
2023-01-06T22:02:52.396Z,23.80
2023-01-06T22:05:23.075Z,19.00
2023-01-06T22:07:54.339Z,21.60
2023-01-06T22:10:26.346Z,21.20
2023-01-06T22:12:58.794Z,17.80
2023-01-06T22:15:29.399Z,20.00
2023-01-06T22:18:00.752Z,19.60
2023-01-06T22:20:32.184Z,19.40
2023-01-06T22:23:07.550Z,19.40
2023-01-06T22:25:37.081Z,19.60
2023-01-06T22:28:06.639Z,19.30
2023-01-06T22:30:36.326Z,20.30
2023-01-06T22:33:05.963Z,19.60
2023-01-06T22:35:35.472Z,17.10
2023-01-06T22:38:08.122Z,19.80
2023-01-06T22:40:37.496Z,19.60
2023-01-06T22:43:07.251Z,17.50
2023-01-06T22:45:36.847Z,17.00
2023-01-06T22:48:06.554Z,16.40
2023-01-06T22:50:39.833Z,15.60
2023-01-06T22:53:09.442Z,12.20
2023-01-06T22:55:38.947Z,14.80
2023-01-06T22:58:08.547Z,13.30
2023-01-06T23:00:38.085Z,12.90
2023-01-06T23:03:07.764Z,12.20
2023-01-06T23:05:37.224Z,12.20
2023-01-06T23:08:09.468Z,12.00
2023-01-06T23:10:38.874Z,12.30
2023-01-06T23:13:08.285Z,11.30
2023-01-06T23:15:37.687Z,12.00
2023-01-06T23:18:07.279Z,10.60
2023-01-06T23:20:36.615Z,10.50
2023-01-06T23:23:05.954Z,10.70
2023-01-06T23:25:35.357Z,11.70
2023-01-06T23:28:05.628Z,14.50
2023-01-06T23:30:35.012Z,12.00
2023-01-06T23:33:04.705Z,9.70
2023-01-06T23:35:34.003Z,10.10
2023-01-06T23:38:03.679Z,10.90
2023-01-06T23:40:33.273Z,8.40
2023-01-06T23:43:02.856Z,8.40
2023-01-06T23:45:32.213Z,10.80
2023-01-06T23:48:01.754Z,10.00
2023-01-06T23:50:31.120Z,9.50
2023-01-06T23:53:00.533Z,9.60
2023-01-06T23:55:29.803Z,9.90
2023-01-06T23:57:59.036Z,9.90
